createdAt,value
2023-04-19T00:01:24.699Z,102341.63
2023-04-19T00:08:58.713Z,102337.13
2023-04-19T00:16:34.168Z,102326.59
2023-04-19T00:24:08.350Z,102319.72
2023-04-19T00:31:43.626Z,102317.06
2023-04-19T00:39:17.604Z,102318.22
2023-04-19T00:46:53.002Z,102323.69
2023-04-19T00:54:27.165Z,102310.41
2023-04-19T01:02:02.829Z,102307.94
2023-04-19T01:09:36.946Z,102314.00
2023-04-19T01:17:13.313Z,102327.94
2023-04-19T01:24:48.806Z,102320.53
2023-04-19T01:32:22.760Z,102315.00
2023-04-19T01:39:58.197Z,102328.47
2023-04-19T01:47:32.235Z,102314.41
2023-04-19T01:55:08.307Z,102299.66
2023-04-19T02:10:35.167Z,102295.84
2023-04-19T02:18:09.354Z,102298.97
2023-04-19T02:25:44.743Z,102303.44
2023-04-19T02:33:18.787Z,102293.97
2023-04-19T02:40:54.166Z,102290.31
2023-04-19T02:48:28.050Z,102281.63
2023-04-19T02:56:04.202Z,102271.41
2023-04-19T03:03:38.296Z,102271.38
2023-04-19T03:11:14.810Z,102263.63
2023-04-19T03:18:49.588Z,102253.41
2023-04-19T03:26:25.270Z,102246.97
2023-04-19T03:33:59.692Z,102237.53
2023-04-19T03:41:35.287Z,102226.94
2023-04-19T03:49:09.291Z,102219.34
2023-04-19T03:56:44.493Z,102225.78
2023-04-19T04:04:18.909Z,102233.25
2023-04-19T04:11:54.253Z,102225.84
2023-04-19T04:19:28.320Z,102228.13
2023-04-19T04:27:03.682Z,102239.13
2023-04-19T04:34:38.572Z,102222.34
2023-04-19T04:42:14.796Z,102218.59
2023-04-19T04:49:49.053Z,102212.69
2023-04-19T04:57:24.598Z,102196.19
2023-04-19T05:04:58.663Z,102206.44
2023-04-19T05:12:34.141Z,102193.56
2023-04-19T05:20:09.235Z,102189.69
2023-04-19T05:28:02.319Z,102193.19
2023-04-19T05:35:36.422Z,102177.22
2023-04-19T05:43:11.869Z,102167.56
2023-04-19T05:50:45.732Z,102167.72
2023-04-19T05:58:21.245Z,102168.81
2023-04-19T06:05:55.324Z,102160.13
2023-04-19T06:21:22.183Z,102168.44
2023-04-19T06:28:57.731Z,102155.03
2023-04-19T06:36:31.965Z,102147.16
2023-04-19T06:44:07.530Z,102148.09
2023-04-19T06:51:41.390Z,102138.47
2023-04-19T06:59:19.324Z,102129.63
2023-04-19T07:06:53.208Z,102122.94
2023-04-19T07:14:28.668Z,102115.84
2023-04-19T07:22:03.440Z,102104.78
2023-04-19T07:29:39.085Z,102085.75
2023-04-19T07:37:14.276Z,102082.94
2023-04-19T07:44:50.973Z,102088.31
2023-04-19T07:52:25.287Z,102064.31
2023-04-19T08:00:02.052Z,102062.13
2023-04-19T08:07:35.903Z,102050.41
2023-04-19T08:15:38.107Z,102054.03
2023-04-19T08:23:20.692Z,102047.72
2023-04-19T08:31:00.461Z,102030.13
2023-04-19T08:38:34.609Z,102042.31
2023-04-19T08:46:11.732Z,102026.78
2023-04-19T08:53:45.961Z,102038.13
2023-04-19T09:16:55.031Z,101997.31
2023-04-19T09:25:13.894Z,101969.97
2023-04-19T09:32:48.146Z,101969.66
2023-04-19T09:40:27.016Z,101966.16
2023-04-19T09:48:07.438Z,101953.41
2023-04-19T09:55:53.374Z,101955.47
2023-04-19T10:03:36.082Z,101957.69
2023-04-19T10:11:12.128Z,101933.53
2023-04-19T10:18:47.784Z,101910.53
2023-04-19T10:26:22.313Z,101925.41
2023-04-19T10:33:58.015Z,101904.09
2023-04-19T10:41:59.511Z,101900.97
2023-04-19T10:49:45.770Z,101900.00
2023-04-19T10:57:19.533Z,101901.19
2023-04-19T11:05:14.429Z,101898.97
2023-04-19T11:12:48.245Z,101885.47
2023-04-19T11:20:26.113Z,101883.03
2023-04-19T11:28:01.662Z,101879.56
2023-04-19T11:35:37.111Z,101863.63
2023-04-19T11:43:11.122Z,101855.50
2023-04-19T11:57:32.690Z,101844.50
2023-04-19T12:05:17.137Z,101852.69
2023-04-19T12:12:52.398Z,101847.09
2023-04-19T12:20:34.151Z,101829.53
2023-04-19T12:28:09.346Z,101829.50
2023-04-19T12:35:44.916Z,101817.56
2023-04-19T12:43:20.026Z,101815.69
2023-04-19T12:50:54.344Z,101787.41
2023-04-19T12:58:29.469Z,101792.91
2023-04-19T13:06:03.299Z,101781.00
2023-04-19T13:13:38.460Z,101765.25
2023-04-19T13:21:12.242Z,101752.44
2023-04-19T13:28:47.380Z,101742.94
2023-04-19T13:36:21.184Z,101715.63
2023-04-19T13:43:56.310Z,101707.59
2023-04-19T13:51:39.107Z,101718.91
2023-04-19T13:59:22.285Z,101723.00
2023-04-19T14:06:56.135Z,101717.75
2023-04-19T14:14:32.575Z,101713.19
2023-04-19T14:22:07.766Z,101740.00
2023-04-19T14:29:43.046Z,101710.91
2023-04-19T14:37:17.302Z,101686.97
2023-04-19T14:44:53.872Z,101673.72
2023-04-19T14:52:27.913Z,101677.31
2023-04-19T15:00:06.621Z,101662.75
2023-04-19T15:07:40.723Z,101652.94
2023-04-19T15:15:16.026Z,101670.59
2023-04-19T15:22:50.727Z,101684.59
2023-04-19T15:30:26.144Z,101689.50
2023-04-19T15:38:00.255Z,101717.84
2023-04-19T15:45:36.170Z,101744.97
2023-04-19T15:53:10.590Z,101750.06
2023-04-19T16:00:46.029Z,101747.41
2023-04-19T16:08:20.537Z,101732.50
2023-04-19T16:15:55.828Z,101728.50
2023-04-19T16:23:29.692Z,101717.50
2023-04-19T16:31:04.911Z,101700.38
2023-04-19T16:38:38.671Z,101695.56
2023-04-19T16:46:13.998Z,101682.06
2023-04-19T16:53:47.841Z,101681.50
2023-04-19T17:01:23.216Z,101675.84
2023-04-19T17:08:57.101Z,101658.75
2023-04-19T17:16:35.611Z,101657.84
2023-04-19T17:24:09.637Z,101660.41
2023-04-19T17:31:44.894Z,101658.75
2023-04-19T17:39:19.041Z,101655.41
2023-04-19T17:46:54.582Z,101656.34
2023-04-19T17:54:28.928Z,101664.31
2023-04-19T18:02:04.414Z,101659.06
2023-04-19T18:09:38.585Z,101669.38
2023-04-19T18:17:14.109Z,101667.66
2023-04-19T18:24:51.099Z,101670.69
2023-04-19T18:32:30.149Z,101667.19
2023-04-19T18:40:06.882Z,101664.28
2023-04-19T18:47:42.382Z,101657.28
2023-04-19T18:55:16.284Z,101661.56
2023-04-19T19:02:52.893Z,101668.72
2023-04-19T19:18:09.900Z,101670.75
2023-04-19T19:25:43.892Z,101677.97
2023-04-19T19:33:19.717Z,101673.63
2023-04-19T19:41:31.029Z,101671.88
2023-04-19T19:48:53.565Z,101676.69
2023-04-19T19:56:28.377Z,101688.16
2023-04-19T20:04:04.400Z,101682.69
2023-04-19T20:11:39.012Z,101677.59
2023-04-19T20:19:15.670Z,101688.56
2023-04-19T20:26:49.866Z,101701.97
2023-04-19T20:34:25.526Z,101694.00
2023-04-19T20:41:59.530Z,101684.22
2023-04-19T20:49:34.947Z,101689.66
2023-04-19T20:57:09.958Z,101686.06
2023-04-19T21:04:45.364Z,101683.41
2023-04-19T21:12:19.426Z,101671.78
2023-04-19T21:19:54.714Z,101684.28
2023-04-19T21:27:30.153Z,101683.47
2023-04-19T21:35:07.382Z,101686.88
2023-04-19T21:42:41.300Z,101690.38
2023-04-19T21:50:16.600Z,101693.22
2023-04-19T21:57:50.449Z,101695.69
2023-04-19T22:05:26.000Z,101700.94
2023-04-19T22:13:00.252Z,101707.09
2023-04-19T22:28:28.481Z,101706.03
2023-04-19T22:36:03.734Z,101690.16
2023-04-19T22:43:38.076Z,101678.84
2023-04-19T22:51:13.546Z,101691.84
2023-04-19T22:58:47.522Z,101684.06
2023-04-19T23:06:23.551Z,101669.28
2023-04-19T23:13:57.624Z,101684.94
2023-04-19T23:21:33.420Z,101686.94
2023-04-19T23:29:07.408Z,101671.06
2023-04-19T23:36:42.749Z,101660.31
2023-04-19T23:44:16.773Z,101660.59
2023-04-19T23:51:52.229Z,101658.78
2023-04-19T23:59:27.988Z,101648.53
